Hitra — 9HRO9 — position and weather

sailwx.info

Track history (hours):
 
Tides and Currents Weather Stations Pressure Air Temp Water Temp Dewpoint Dewpoint Depression Visibility Wind Speed Wind Dir Waves Ship Positions

Hitra

Last reported at 2018-Feb-21 20:18 UTC. Time now 2018-Feb-23 09:02 UTC.
Position N 37°36' E 023°54'.

Length 107 m; draft 7 m.

Type: Ship. MMSI: 249421000.

Date/timePositionNaut miles runAvg speedWind from/ knotsBaromVisibWave heightAir tempDewpointWater temp
2018-Feb-21 20:18N 37°36' E 023°54'810.3
2018-Feb-21 19:31N 37°39' E 023°44'0 9.7
2018-Feb-21 19:30N 37°39' E 023°44'510.1
2018-Feb-21 19:00N 37°43' E 023°40'510.4
2018-Feb-21 18:30N 37°48' E 023°37'5 9.4
2018-Feb-21 18:00N 37°50' E 023°32'510.6
2018-Feb-21 17:30N 37°51' E 023°25'510.7
2018-Feb-21 17:00N 37°52' E 023°19'510.6
2018-Feb-21 16:30N 37°53' E 023°12'510.2
2018-Feb-21 16:00N 37°54' E 023°06'1 1.2
2018-Feb-21 15:29N 37°55' E 023°05'0 0.0
2018-Feb-21 14:59N 37°55' E 023°05'0 0.0
2018-Feb-21 14:29N 37°55' E 023°05'0 0.0
2018-Feb-21 13:59N 37°55' E 023°05'0 0.0
2018-Feb-21 13:29N 37°55' E 023°05'0 0.0
2018-Feb-21 12:59N 37°55' E 023°05'0 0.0
2018-Feb-21 12:29N 37°55' E 023°05'0 0.0
2018-Feb-21 11:59N 37°55' E 023°05'0 0.0
2018-Feb-21 11:29N 37°55' E 023°05'0 0.0
2018-Feb-21 10:59N 37°55' E 023°05'0 0.0
2018-Feb-21 10:29N 37°55' E 023°05'0 0.0
2018-Feb-21 09:59N 37°55' E 023°05'0 0.0
2018-Feb-21 09:29N 37°55' E 023°05'0 0.0
2018-Feb-21 08:59N 37°55' E 023°05'0 0.0
2018-Feb-21 08:29N 37°55' E 023°05'0 0.0
2018-Feb-21 07:59N 37°55' E 023°05'0 0.0
2018-Feb-21 07:29N 37°55' E 023°05'0 0.0
2018-Feb-21 06:59N 37°55' E 023°05'0 0.0
2018-Feb-21 06:29N 37°55' E 023°05'0 0.0
2018-Feb-21 05:59N 37°55' E 023°05'0 0.0
2018-Feb-21 05:29N 37°55' E 023°05'0 0.0
2018-Feb-21 04:59N 37°55' E 023°05'0 0.0
2018-Feb-21 04:29N 37°55' E 023°05'0 0.0
2018-Feb-21 03:59N 37°55' E 023°05'0 0.0
2018-Feb-21 03:29N 37°55' E 023°05'0 0.0
2018-Feb-21 02:59N 37°55' E 023°05'0 0.0
2018-Feb-21 02:29N 37°55' E 023°05'0 0.0
2018-Feb-21 01:59N 37°55' E 023°05'0 0.0
2018-Feb-21 01:29N 37°55' E 023°05'0 0.1
2018-Feb-21 00:59N 37°55' E 023°05'0 0.1
2018-Feb-21 00:29N 37°55' E 023°05'0 0.0
2018-Feb-20 23:59N 37°55' E 023°05'0 0.0
2018-Feb-20 23:29N 37°55' E 023°05'0 0.0
2018-Feb-20 22:59N 37°55' E 023°05'0 0.0
2018-Feb-20 22:29N 37°55' E 023°05'0 0.0
2018-Feb-20 21:59N 37°55' E 023°05'0 0.0
2018-Feb-20 21:29N 37°55' E 023°05'0 0.0
2018-Feb-20 20:59N 37°55' E 023°05'0 0.0
2018-Feb-20 20:29N 37°55' E 023°05'0 0.0
2018-Feb-20 19:59N 37°55' E 023°05'0 0.0
2018-Feb-20 19:29N 37°55' E 023°05'0 0.0
2018-Feb-20 18:59N 37°55' E 023°05'0 0.0
2018-Feb-20 18:29N 37°55' E 023°05'0 0.0
2018-Feb-20 17:59N 37°55' E 023°05'0 0.0
2018-Feb-20 17:29N 37°55' E 023°05'0 0.0
2018-Feb-20 16:59N 37°55' E 023°05'0 0.0
2018-Feb-20 16:29N 37°55' E 023°05'0 0.0
2018-Feb-20 15:59N 37°55' E 023°05'0 0.0
2018-Feb-20 15:29N 37°55' E 023°05'0 0.0
2018-Feb-20 14:59N 37°55' E 023°05'0 0.0
2018-Feb-20 14:29N 37°55' E 023°05'0 0.0
2018-Feb-20 13:59N 37°55' E 023°05'0 0.0
2018-Feb-20 13:29N 37°55' E 023°05'0 0.0
2018-Feb-20 12:59N 37°55' E 023°05'0 0.0
2018-Feb-20 12:29N 37°55' E 023°05'0 0.0
2018-Feb-20 11:59N 37°55' E 023°05'0 0.0
2018-Feb-20 11:29N 37°55' E 023°05'0 0.0
2018-Feb-20 10:59N 37°55' E 023°05'0 0.0
2018-Feb-20 10:29N 37°55' E 023°05'0 0.0
2018-Feb-20 09:59N 37°55' E 023°05'0 0.0
2018-Feb-20 09:29N 37°55' E 023°05'0 0.0
2018-Feb-20 08:59N 37°55' E 023°05'0 0.0
2018-Feb-20 08:30N 37°55' E 023°05'2 4.2
2018-Feb-20 08:00N 37°54' E 023°07'611.4
2018-Feb-20 07:30N 37°52' E 023°14'611.5
2018-Feb-20 07:00N 37°51' E 023°22'611.3
2018-Feb-20 06:30N 37°50' E 023°29'611.2
2018-Feb-20 06:00N 37°51' E 023°36'3 6.5
2018-Feb-20 05:30N 37°50' E 023°39'611.3
2018-Feb-20 05:00N 37°45' E 023°43'510.8
2018-Feb-20 04:30N 37°40' E 023°45'510.8
2018-Feb-20 04:00N 37°34' E 023°44'610.9
2018-Feb-20 03:30N 37°29' E 023°42'911.1
2018-Feb-20 02:43N 37°21' E 023°40'210.4
2018-Feb-20 02:30N 37°19' E 023°39'  
2018-Feb-13 07:56N 44°31' E 013°02'  
Track history (hours):
 
Tides and Currents Weather Stations Pressure Air Temp Water Temp Dewpoint Dewpoint Depression Visibility Wind Speed Wind Dir Waves Ship Positions

Hitra

Last reported at 2018-Feb-21 20:18 UTC. Time now 2018-Feb-23 09:02 UTC.
Position N 37°36' E 023°54'.

Length 107 m; draft 7 m.

Type: Ship. MMSI: 249421000.

Date/timePositionNaut miles runAvg speedWind from/ knotsBaromVisibWave heightAir tempDewpointWater temp
2018-Feb-21 20:18N 37°36' E 023°54'810.3
2018-Feb-21 19:31N 37°39' E 023°44'0 9.7
2018-Feb-21 19:30N 37°39' E 023°44'510.1
2018-Feb-21 19:00N 37°43' E 023°40'510.4
2018-Feb-21 18:30N 37°48' E 023°37'5 9.4
2018-Feb-21 18:00N 37°50' E 023°32'510.6
2018-Feb-21 17:30N 37°51' E 023°25'510.7
2018-Feb-21 17:00N 37°52' E 023°19'510.6
2018-Feb-21 16:30N 37°53' E 023°12'510.2
2018-Feb-21 16:00N 37°54' E 023°06'1 1.2
2018-Feb-21 15:29N 37°55' E 023°05'0 0.0
2018-Feb-21 14:59N 37°55' E 023°05'0 0.0
2018-Feb-21 14:29N 37°55' E 023°05'0 0.0
2018-Feb-21 13:59N 37°55' E 023°05'0 0.0
2018-Feb-21 13:29N 37°55' E 023°05'0 0.0
2018-Feb-21 12:59N 37°55' E 023°05'0 0.0
2018-Feb-21 12:29N 37°55' E 023°05'0 0.0
2018-Feb-21 11:59N 37°55' E 023°05'0 0.0
2018-Feb-21 11:29N 37°55' E 023°05'0 0.0
2018-Feb-21 10:59N 37°55' E 023°05'0 0.0
2018-Feb-21 10:29N 37°55' E 023°05'0 0.0
2018-Feb-21 09:59N 37°55' E 023°05'0 0.0
2018-Feb-21 09:29N 37°55' E 023°05'0 0.0
2018-Feb-21 08:59N 37°55' E 023°05'0 0.0
2018-Feb-21 08:29N 37°55' E 023°05'0 0.0
2018-Feb-21 07:59N 37°55' E 023°05'0 0.0
2018-Feb-21 07:29N 37°55' E 023°05'0 0.0
2018-Feb-21 06:59N 37°55' E 023°05'0 0.0
2018-Feb-21 06:29N 37°55' E 023°05'0 0.0
2018-Feb-21 05:59N 37°55' E 023°05'0 0.0
2018-Feb-21 05:29N 37°55' E 023°05'0 0.0
2018-Feb-21 04:59N 37°55' E 023°05'0 0.0
2018-Feb-21 04:29N 37°55' E 023°05'0 0.0
2018-Feb-21 03:59N 37°55' E 023°05'0 0.0
2018-Feb-21 03:29N 37°55' E 023°05'0 0.0
2018-Feb-21 02:59N 37°55' E 023°05'0 0.0
2018-Feb-21 02:29N 37°55' E 023°05'0 0.0
2018-Feb-21 01:59N 37°55' E 023°05'0 0.0
2018-Feb-21 01:29N 37°55' E 023°05'0 0.1
2018-Feb-21 00:59N 37°55' E 023°05'0 0.1
2018-Feb-21 00:29N 37°55' E 023°05'0 0.0
2018-Feb-20 23:59N 37°55' E 023°05'0 0.0
2018-Feb-20 23:29N 37°55' E 023°05'0 0.0
2018-Feb-20 22:59N 37°55' E 023°05'0 0.0
2018-Feb-20 22:29N 37°55' E 023°05'0 0.0
2018-Feb-20 21:59N 37°55' E 023°05'0 0.0
2018-Feb-20 21:29N 37°55' E 023°05'0 0.0
2018-Feb-20 20:59N 37°55' E 023°05'0 0.0
2018-Feb-20 20:29N 37°55' E 023°05'0 0.0
2018-Feb-20 19:59N 37°55' E 023°05'0 0.0
2018-Feb-20 19:29N 37°55' E 023°05'0 0.0
2018-Feb-20 18:59N 37°55' E 023°05'0 0.0
2018-Feb-20 18:29N 37°55' E 023°05'0 0.0
2018-Feb-20 17:59N 37°55' E 023°05'0 0.0
2018-Feb-20 17:29N 37°55' E 023°05'0 0.0
2018-Feb-20 16:59N 37°55' E 023°05'0 0.0
2018-Feb-20 16:29N 37°55' E 023°05'0 0.0
2018-Feb-20 15:59N 37°55' E 023°05'0 0.0
2018-Feb-20 15:29N 37°55' E 023°05'0 0.0
2018-Feb-20 14:59N 37°55' E 023°05'0 0.0
2018-Feb-20 14:29N 37°55' E 023°05'0 0.0
2018-Feb-20 13:59N 37°55' E 023°05'0 0.0
2018-Feb-20 13:29N 37°55' E 023°05'0 0.0
2018-Feb-20 12:59N 37°55' E 023°05'0 0.0
2018-Feb-20 12:29N 37°55' E 023°05'0 0.0
2018-Feb-20 11:59N 37°55' E 023°05'0 0.0
2018-Feb-20 11:29N 37°55' E 023°05'0 0.0
2018-Feb-20 10:59N 37°55' E 023°05'0 0.0
2018-Feb-20 10:29N 37°55' E 023°05'0 0.0
2018-Feb-20 09:59N 37°55' E 023°05'0 0.0
2018-Feb-20 09:29N 37°55' E 023°05'0 0.0
2018-Feb-20 08:59N 37°55' E 023°05'0 0.0
2018-Feb-20 08:30N 37°55' E 023°05'2 4.2
2018-Feb-20 08:00N 37°54' E 023°07'611.4
2018-Feb-20 07:30N 37°52' E 023°14'611.5
2018-Feb-20 07:00N 37°51' E 023°22'611.3
2018-Feb-20 06:30N 37°50' E 023°29'611.2
2018-Feb-20 06:00N 37°51' E 023°36'3 6.5
2018-Feb-20 05:30N 37°50' E 023°39'611.3
2018-Feb-20 05:00N 37°45' E 023°43'510.8
2018-Feb-20 04:30N 37°40' E 023°45'510.8
2018-Feb-20 04:00N 37°34' E 023°44'610.9
2018-Feb-20 03:30N 37°29' E 023°42'911.1
2018-Feb-20 02:43N 37°21' E 023°40'210.4
2018-Feb-20 02:30N 37°19' E 023°39'  
2018-Feb-13 07:56N 44°31' E 013°02'  

Dump ship's entire track history